Time;durP1;ratioP1;P1;durP2;ratioP2;P2;SDS_P1;SDS_P2;PMS_P1;PMS_P2;Temp;Humidity;BMP_temperature;BMP_pressure;BME280_temperature;BME280_humidity;BME280_pressure;Samples;Min_cycle;Max_cycle;Signal;HPM_P1;HPM_P2
2023/03/31 00:01:26;;;;;;;34.17;6.40;;;9.90;99.90;;;;;;5059330;28;20449;-61
2023/03/31 00:04:00;;;;;;;27.65;4.43;;;9.80;99.90;;;;;;5060128;28;20129;-61
2023/03/31 00:06:27;;;;;;;35.03;4.43;;;9.80;99.90;;;;;;5052382;28;20045;-61
2023/03/31 00:08:53;;;;;;;27.88;4.20;;;9.80;99.90;;;;;;5066322;28;20045;-61
2023/03/31 00:11:20;;;;;;;31.17;3.92;;;9.70;99.90;;;;;;5065299;28;20040;-62
2023/03/31 00:13:47;;;;;;;25.90;3.88;;;9.70;99.90;;;;;;5058636;28;20488;-62
2023/03/31 00:16:13;;;;;;;41.15;6.00;;;9.70;99.90;;;;;;5063050;28;20048;-61
2023/03/31 00:18:46;;;;;;;34.10;5.45;;;9.60;99.90;;;;;;5060564;28;20044;-62
2023/03/31 00:21:32;;;;;;;19.33;3.42;;;9.60;99.90;;;;;;5066408;28;20059;-61
2023/03/31 00:24:09;;;;;;;37.95;4.55;;;9.50;99.90;;;;;;5048401;28;20052;-62
2023/03/31 00:26:36;;;;;;;31.33;4.57;;;9.50;99.90;;;;;;5066128;28;20126;-61
2023/03/31 00:29:04;;;;;;;25.25;3.63;;;9.50;99.90;;;;;;5048024;28;20049;-61
2023/03/31 00:31:30;;;;;;;32.42;5.03;;;9.40;99.90;;;;;;5064747;28;20099;-61
2023/03/31 00:33:56;;;;;;;43.80;4.70;;;9.40;99.90;;;;;;5055327;28;20516;-61
2023/03/31 00:36:28;;;;;;;28.05;4.28;;;9.40;99.90;;;;;;5062044;28;20048;-61
2023/03/31 00:38:59;;;;;;;27.52;4.68;;;9.40;99.90;;;;;;5052020;28;20040;-61
2023/03/31 00:41:26;;;;;;;23.42;3.80;;;9.40;99.90;;;;;;5067354;28;20045;-61
2023/03/31 00:44:01;;;;;;;34.05;4.53;;;9.30;99.90;;;;;;5060270;28;20060;-61
2023/03/31 00:46:32;;;;;;;30.33;5.72;;;9.30;99.90;;;;;;5062570;28;20055;-61
2023/03/31 00:48:58;;;;;;;27.45;4.85;;;9.30;99.90;;;;;;5066890;28;20060;-61
2023/03/31 00:51:30;;;;;;;34.28;4.75;;;9.30;99.90;;;;;;5069765;28;20052;-61
2023/03/31 00:54:03;;;;;;;27.33;4.45;;;9.30;99.90;;;;;;5069760;28;20414;-61
2023/03/31 00:56:34;;;;;;;32.65;4.80;;;9.30;99.90;;;;;;5069183;28;20049;-61
2023/03/31 00:59:03;;;;;;;37.10;5.55;;;9.20;99.90;;;;;;5069570;28;20130;-61
2023/03/31 01:01:30;;;;;;;30.98;5.55;;;9.20;99.90;;;;;;5069589;28;20044;-61
2023/03/31 01:03:56;;;;;;;28.52;4.18;;;9.20;99.90;;;;;;5051286;28;20048;-61
2023/03/31 01:06:24;;;;;;;36.63;5.35;;;9.20;99.90;;;;;;5070211;28;20041;-61
2023/03/31 01:08:51;;;;;;;34.78;6.05;;;9.20;99.90;;;;;;5051448;28;20051;-61
2023/03/31 01:11:20;;;;;;;31.95;4.57;;;9.20;99.90;;;;;;5051466;28;20395;-61
2023/03/31 01:13:49;;;;;;;31.65;5.38;;;9.10;99.90;;;;;;5069562;28;20048;-61
2023/03/31 01:16:16;;;;;;;36.85;5.28;;;9.00;99.90;;;;;;5051561;28;20410;-61
2023/03/31 01:18:45;;;;;;;34.85;4.53;;;9.00;99.90;;;;;;5051340;28;20056;-61
2023/03/31 01:21:58;;;;;;;33.28;4.38;;;9.00;99.90;;;;;;5057124;28;20078;-61
2023/03/31 01:24:24;;;;;;;33.08;4.47;;;9.00;99.90;;;;;;5051022;28;20052;-61
2023/03/31 01:27:03;;;;;;;30.23;4.85;;;9.00;99.90;;;;;;5069115;28;20041;-61
2023/03/31 01:29:50;;;;;;;27.83;4.82;;;8.90;99.90;;;;;;5067885;28;20083;-61
2023/03/31 01:32:40;;;;;;;40.50;5.68;;;8.90;99.90;;;;;;5068942;28;20468;-61
2023/03/31 01:35:19;;;;;;;39.90;5.38;;;8.90;99.90;;;;;;5056011;28;20468;-61
2023/03/31 01:38:00;;;;;;;35.15;5.43;;;8.80;99.90;;;;;;5050478;28;20048;-61
2023/03/31 01:40:40;;;;;;;36.65;5.13;;;8.80;99.90;;;;;;5064545;28;20040;-61
2023/03/31 01:43:14;;;;;;;35.80;4.95;;;8.80;99.90;;;;;;5054676;28;21042;-61
2023/03/31 01:45:48;;;;;;;45.80;5.95;;;8.80;99.90;;;;;;5065511;28;20075;-61
2023/03/31 01:48:19;;;;;;;36.05;4.80;;;8.70;99.90;;;;;;5046913;28;20744;-61
2023/03/31 01:50:55;;;;;;;33.35;4.35;;;8.70;99.90;;;;;;5067913;28;20052;-61
2023/03/31 01:53:49;;;;;;;30.73;4.00;;;8.80;99.90;;;;;;5069168;28;20051;-61
2023/03/31 01:56:21;;;;;;;33.83;4.82;;;8.90;99.90;;;;;;5039870;28;20052;-61
2023/03/31 01:58:58;;;;;;;36.03;4.93;;;8.90;99.90;;;;;;5067860;28;20127;-61
2023/03/31 02:01:32;;;;;;;35.67;4.75;;;9.00;99.90;;;;;;5068211;28;20123;-61
2023/03/31 02:04:06;;;;;;;40.75;4.95;;;9.00;99.90;;;;;;5048262;28;20044;-61
2023/03/31 02:06:41;;;;;;;30.52;4.10;;;9.00;99.90;;;;;;5068319;28;20114;-61
2023/03/31 02:09:15;;;;;;;35.80;4.10;;;9.00;99.90;;;;;;5055364;28;20104;-61
2023/03/31 02:11:42;;;;;;;23.15;3.78;;;9.00;99.90;;;;;;5068395;28;20040;-61
2023/03/31 02:14:11;;;;;;;36.00;5.03;;;9.00;99.90;;;;;;5064822;28;20044;-61
2023/03/31 02:16:46;;;;;;;37.15;6.63;;;9.10;99.90;;;;;;5067375;28;20494;-61
2023/03/31 02:19:17;;;;;;;38.13;5.50;;;9.00;99.90;;;;;;5041936;28;20136;-61
2023/03/31 02:21:47;;;;;;;26.77;3.85;;;9.10;99.90;;;;;;5044758;28;20101;-61
2023/03/31 02:24:14;;;;;;;27.45;3.97;;;9.00;99.90;;;;;;5063948;28;20044;-61
2023/03/31 02:26:47;;;;;;;24.98;4.40;;;9.10;99.90;;;;;;5067234;28;20045;-61
2023/03/31 02:29:12;;;;;;;22.60;4.05;;;9.10;99.90;;;;;;5062492;28;20041;-61
2023/03/31 02:32:15;;;;;;;34.13;4.75;;;9.10;99.90;;;;;;5067923;28;20047;-61
2023/03/31 02:34:41;;;;;;;34.38;5.22;;;9.10;99.90;;;;;;5064110;28;20506;-61
2023/03/31 02:37:07;;;;;;;41.92;4.65;;;9.00;99.90;;;;;;5049856;28;20056;-61
2023/03/31 02:39:35;;;;;;;22.33;4.10;;;9.00;99.90;;;;;;5049622;28;20061;-61
2023/03/31 02:42:06;;;;;;;34.00;4.93;;;9.00;99.90;;;;;;5049477;28;20509;-61
2023/03/31 02:44:38;;;;;;;28.20;5.28;;;9.00;99.90;;;;;;5062102;28;20079;-61
2023/03/31 02:47:11;;;;;;;33.45;4.30;;;9.00;99.90;;;;;;5067309;28;20391;-61
2023/03/31 02:49:41;;;;;;;33.85;6.45;;;9.00;99.90;;;;;;5061930;28;20041;-61
2023/03/31 02:52:25;;;;;;;28.42;4.15;;;9.00;99.90;;;;;;5067273;28;20048;-61
2023/03/31 02:55:12;;;;;;;19.90;3.13;;;8.90;99.90;;;;;;5062265;28;20400;-61
2023/03/31 02:57:51;;;;;;;27.63;3.80;;;9.00;99.90;;;;;;5064279;28;20057;-61
2023/03/31 03:00:23;;;;;;;31.83;3.90;;;8.90;99.90;;;;;;5066475;28;20384;-61
2023/03/31 03:03:11;;;;;;;30.63;4.55;;;9.00;99.90;;;;;;5067211;28;20044;-61
2023/03/31 03:05:48;;;;;;;23.85;3.90;;;8.90;99.90;;;;;;5066782;28;20048;-61
2023/03/31 03:08:43;;;;;;;30.88;4.20;;;8.90;99.90;;;;;;5067197;28;20111;-61
2023/03/31 03:11:27;;;;;;;23.42;3.95;;;8.90;99.90;;;;;;4993352;28;20132;-61
2023/03/31 03:14:13;;;;;;;33.83;4.05;;;8.90;99.90;;;;;;5060684;28;20468;-61
2023/03/31 03:16:43;;;;;;;24.27;3.83;;;8.90;99.90;;;;;;5048759;28;20131;-61
2023/03/31 03:19:09;;;;;;;34.35;4.68;;;8.90;99.90;;;;;;5066871;28;20052;-61
2023/03/31 03:21:35;;;;;;;25.30;3.33;;;8.90;99.90;;;;;;5066591;28;20414;-61
2023/03/31 03:24:01;;;;;;;25.38;3.45;;;8.80;99.90;;;;;;5067338;28;20045;-61
2023/03/31 03:26:27;;;;;;;21.10;3.60;;;8.90;99.90;;;;;;5066532;28;20037;-61
2023/03/31 03:28:55;;;;;;;30.92;4.32;;;8.80;99.90;;;;;;5049032;28;20052;-61
2023/03/31 03:31:22;;;;;;;35.47;4.95;;;8.90;99.90;;;;;;5066043;28;20036;-61
2023/03/31 03:33:51;;;;;;;26.50;4.20;;;8.80;99.90;;;;;;5032261;28;20040;-61
2023/03/31 03:36:17;;;;;;;24.02;3.85;;;8.80;99.90;;;;;;5066915;28;20048;-61
2023/03/31 03:38:43;;;;;;;24.55;3.83;;;8.80;99.90;;;;;;5048988;28;20105;-61
2023/03/31 03:41:09;;;;;;;22.27;4.30;;;8.90;99.90;;;;;;5048632;28;20075;-61
2023/03/31 03:43:35;;;;;;;23.48;3.58;;;8.90;99.90;;;;;;5066517;28;20048;-61
2023/03/31 03:46:01;;;;;;;26.45;3.90;;;8.90;99.90;;;;;;5066922;28;20048;-61
2023/03/31 03:48:26;;;;;;;26.05;4.38;;;8.90;99.90;;;;;;5047921;28;20510;-61
2023/03/31 03:50:53;;;;;;;23.17;3.80;;;9.00;99.90;;;;;;5066561;28;20052;-61
2023/03/31 03:53:19;;;;;;;30.45;4.03;;;8.90;99.90;;;;;;5066758;28;20074;-61
2023/03/31 03:55:47;;;;;;;20.90;3.17;;;8.90;99.90;;;;;;5066564;28;20066;-61
2023/03/31 03:58:15;;;;;;;30.27;3.80;;;8.90;99.90;;;;;;5048947;28;20080;-61
2023/03/31 04:00:41;;;;;;;33.40;4.28;;;8.90;99.90;;;;;;5065686;28;20145;-61
2023/03/31 04:03:06;;;;;;;23.90;3.20;;;8.90;99.90;;;;;;5066254;28;20128;-61
2023/03/31 04:05:32;;;;;;;24.02;3.40;;;8.90;99.90;;;;;;5066438;28;20040;-61
2023/03/31 04:07:58;;;;;;;25.55;3.63;;;8.90;99.90;;;;;;5055360;28;20567;-61
2023/03/31 04:10:23;;;;;;;25.85;5.13;;;8.80;99.90;;;;;;5063566;28;20040;-61
2023/03/31 04:12:50;;;;;;;22.98;3.15;;;8.80;99.90;;;;;;5070660;28;20044;-61
2023/03/31 04:15:16;;;;;;;17.35;2.97;;;8.80;99.90;;;;;;5070834;28;20071;-61
2023/03/31 04:17:49;;;;;;;20.05;3.03;;;8.80;99.90;;;;;;5052045;28;20177;-61
2023/03/31 04:20:16;;;;;;;13.10;2.72;;;8.80;99.90;;;;;;5070374;28;20064;-61
2023/03/31 04:22:45;;;;;;;22.70;3.97;;;8.80;99.90;;;;;;5070124;28;20048;-61
2023/03/31 04:25:16;;;;;;;14.65;3.47;;;8.80;99.90;;;;;;5070916;28;20045;-61
2023/03/31 04:27:53;;;;;;;;;;;8.80;99.90;;;;;;5070859;28;20414;-61
2023/03/31 04:30:23;;;;;;;14.45;2.95;;;8.80;99.90;;;;;;5070101;28;19944;-61
2023/03/31 04:32:54;;;;;;;11.17;2.60;;;8.80;99.90;;;;;;5068553;28;20044;-61
2023/03/31 04:35:24;;;;;;;16.15;3.13;;;8.80;99.90;;;;;;5069848;28;20044;-61
2023/03/31 04:37:57;;;;;;;24.40;3.45;;;8.90;99.90;;;;;;5070611;28;20052;-61
2023/03/31 04:40:24;;;;;;;18.65;3.65;;;8.90;99.90;;;;;;5070359;28;20080;-61
2023/03/31 04:42:50;;;;;;;17.52;3.70;;;8.90;99.90;;;;;;5069578;28;20044;-61
2023/03/31 04:45:16;;;;;;;18.20;3.50;;;9.00;99.90;;;;;;5069918;28;20391;-61
2023/03/31 04:47:42;;;;;;;21.27;3.28;;;9.10;99.90;;;;;;5069991;28;20479;-61
2023/03/31 04:50:11;;;;;;;12.00;2.80;;;9.10;99.90;;;;;;5069804;28;20068;-61
2023/03/31 04:52:38;;;;;;;9.03;2.80;;;9.20;99.90;;;;;;5069156;28;20143;-61
2023/03/31 04:55:05;;;;;;;15.43;2.65;;;9.20;99.90;;;;;;5069765;28;20361;-61
2023/03/31 04:57:30;;;;;;;10.68;3.25;;;9.30;99.90;;;;;;5069403;28;20047;-61
2023/03/31 04:59:58;;;;;;;13.50;3.40;;;9.30;99.90;;;;;;5069979;28;20037;-61
2023/03/31 05:02:24;;;;;;;14.50;2.80;;;9.30;99.90;;;;;;5069057;28;20044;-61
2023/03/31 05:04:50;;;;;;;13.85;3.05;;;9.30;99.90;;;;;;5069899;28;20422;-61
2023/03/31 05:07:17;;;;;;;15.70;3.03;;;9.40;99.90;;;;;;5069583;28;20197;-61
2023/03/31 05:09:43;;;;;;;14.35;3.17;;;9.30;99.90;;;;;;5069257;28;20044;-61
2023/03/31 05:12:09;;;;;;;9.20;2.20;;;9.40;99.90;;;;;;5069197;28;20514;-61
2023/03/31 05:14:35;;;;;;;13.57;2.65;;;9.40;99.90;;;;;;5069206;28;20040;-61
2023/03/31 05:17:01;;;;;;;17.27;3.47;;;9.30;99.90;;;;;;5051612;28;20053;-61
2023/03/31 05:19:27;;;;;;;15.23;2.85;;;9.40;99.90;;;;;;5051087;28;20084;-61
2023/03/31 05:21:52;;;;;;;15.00;3.17;;;9.40;99.90;;;;;;5051419;28;20165;-61
2023/03/31 05:24:18;;;;;;;16.58;4.10;;;9.40;99.90;;;;;;5050575;28;20390;-61
2023/03/31 05:26:51;;;;;;;11.65;2.92;;;9.40;99.90;;;;;;5068880;28;20102;-61
2023/03/31 05:29:17;;;;;;;16.27;2.95;;;9.40;99.90;;;;;;5069357;28;20049;-61
2023/03/31 05:31:44;;;;;;;18.23;3.58;;;9.40;99.90;;;;;;5068655;28;20360;-61
2023/03/31 05:34:10;;;;;;;8.02;2.75;;;9.50;99.90;;;;;;5069182;28;20396;-61
2023/03/31 05:36:36;;;;;;;14.07;2.85;;;9.50;99.90;;;;;;5068336;28;20051;-61
2023/03/31 05:39:03;;;;;;;11.52;2.67;;;9.50;99.90;;;;;;5068813;28;20562;-61
2023/03/31 05:41:29;;;;;;;6.43;2.40;;;9.50;99.90;;;;;;5050785;28;20459;-61
2023/03/31 05:43:55;;;;;;;19.20;3.28;;;9.50;99.90;;;;;;5069157;28;20448;-61
2023/03/31 05:46:20;;;;;;;13.10;3.33;;;9.40;99.90;;;;;;5033422;28;20044;-61
2023/03/31 05:48:46;;;;;;;16.45;2.97;;;9.50;99.90;;;;;;5059142;28;20110;-61
2023/03/31 05:51:12;;;;;;;10.05;3.10;;;9.50;99.90;;;;;;5051185;28;20057;-61
2023/03/31 05:53:38;;;;;;;12.75;2.90;;;9.50;99.90;;;;;;5068445;28;20041;-61
2023/03/31 05:56:05;;;;;;;9.43;3.38;;;9.50;99.90;;;;;;5068872;28;20040;-61
2023/03/31 05:58:34;;;;;;;13.50;3.47;;;9.50;99.90;;;;;;5068347;28;20037;-61
2023/03/31 06:01:18;;;;;;;6.43;2.53;;;9.50;99.90;;;;;;5068319;28;20044;-61
2023/03/31 06:03:45;;;;;;;9.35;2.90;;;9.60;99.90;;;;;;5069305;28;20056;-61
2023/03/31 06:06:12;;;;;;;7.32;2.45;;;9.50;99.90;;;;;;5049600;28;20402;-61
2023/03/31 06:08:38;;;;;;;15.43;3.05;;;9.60;99.90;;;;;;5068172;28;20041;-61
2023/03/31 06:11:09;;;;;;;16.60;3.10;;;9.60;99.90;;;;;;5068449;28;20044;-61
2023/03/31 06:13:35;;;;;;;12.65;3.17;;;9.60;99.90;;;;;;5068497;28;20048;-61
2023/03/31 06:16:01;;;;;;;12.43;2.45;;;9.50;99.90;;;;;;5068474;28;20441;-62
2023/03/31 06:18:28;;;;;;;15.25;2.50;;;9.50;99.90;;;;;;5067189;28;20572;-62
2023/03/31 06:20:55;;;;;;;10.63;2.35;;;9.50;99.90;;;;;;5067370;28;20044;-61
2023/03/31 06:23:21;;;;;;;8.55;2.60;;;9.60;99.90;;;;;;5058471;28;20087;-61
2023/03/31 06:25:47;;;;;;;6.20;2.47;;;9.60;99.90;;;;;;5066424;28;20079;-61
2023/03/31 06:28:16;;;;;;;11.32;2.72;;;9.60;99.90;;;;;;5054069;28;20040;-61
2023/03/31 06:30:42;;;;;;;13.27;3.38;;;9.60;99.90;;;;;;5067329;28;20051;-62
2023/03/31 06:33:08;;;;;;;9.32;2.55;;;9.60;99.90;;;;;;5067001;28;20040;-61
2023/03/31 06:35:37;;;;;;;13.05;3.53;;;9.60;99.90;;;;;;5032239;28;20052;-61
2023/03/31 06:38:03;;;;;;;12.85;4.45;;;9.70;99.90;;;;;;5047522;28;20501;-62
2023/03/31 06:40:29;;;;;;;12.73;6.00;;;9.70;99.90;;;;;;5061503;28;20036;-62
2023/03/31 06:42:55;;;;;;;9.18;3.83;;;9.70;99.90;;;;;;5068203;28;20044;-62
2023/03/31 06:45:21;;;;;;;12.05;3.30;;;9.70;99.90;;;;;;5054895;28;20116;-62
2023/03/31 06:47:46;;;;;;;12.23;2.67;;;9.70;99.90;;;;;;5059621;28;20036;-62
2023/03/31 06:50:12;;;;;;;9.57;2.47;;;9.70;99.90;;;;;;5051350;28;20098;-62
2023/03/31 06:52:39;;;;;;;15.88;2.80;;;9.70;99.90;;;;;;5058362;28;20441;-62
2023/03/31 06:55:06;;;;;;;11.10;2.50;;;9.80;99.90;;;;;;5046308;28;20092;-62
2023/03/31 06:57:32;;;;;;;14.27;2.58;;;9.70;99.90;;;;;;5044019;28;20128;-62
2023/03/31 06:59:58;;;;;;;8.00;3.03;;;9.70;99.90;;;;;;5048008;28;20110;-63
2023/03/31 07:02:24;;;;;;;7.00;2.28;;;9.80;99.90;;;;;;5040917;28;20103;-62
2023/03/31 07:04:50;;;;;;;10.20;2.30;;;9.80;99.90;;;;;;5047800;28;20454;-62
2023/03/31 07:07:16;;;;;;;14.23;2.90;;;9.80;99.90;;;;;;5046573;28;20545;-62
2023/03/31 07:09:41;;;;;;;9.85;2.67;;;9.80;99.90;;;;;;5046708;28;20502;-62
2023/03/31 07:12:09;;;;;;;8.93;2.80;;;9.80;99.90;;;;;;5046451;28;20534;-62
2023/03/31 07:14:35;;;;;;;11.90;2.72;;;9.90;99.90;;;;;;5046507;28;20049;-63
2023/03/31 07:17:03;;;;;;;11.30;2.05;;;9.90;99.90;;;;;;5047816;28;20052;-62
2023/03/31 07:19:29;;;;;;;15.07;2.78;;;9.90;99.90;;;;;;5044371;28;20041;-62
2023/03/31 07:21:55;;;;;;;9.00;2.63;;;10.00;99.90;;;;;;5032488;28;20783;-63
2023/03/31 07:24:21;;;;;;;15.90;2.80;;;10.00;99.90;;;;;;5031881;28;20535;-63
2023/03/31 07:26:47;;;;;;;5.72;2.25;;;10.10;99.90;;;;;;5029656;28;20126;-63
2023/03/31 07:29:13;;;;;;;7.53;2.30;;;10.10;99.90;;;;;;5029818;28;20130;-62
2023/03/31 07:31:39;;;;;;;7.47;2.50;;;10.00;99.90;;;;;;5045919;28;20468;-62
2023/03/31 07:34:05;;;;;;;5.68;2.10;;;10.10;99.90;;;;;;5047081;28;20087;-62
2023/03/31 07:36:31;;;;;;;9.13;2.45;;;10.10;99.90;;;;;;5044317;28;20049;-64
2023/03/31 07:38:57;;;;;;;9.52;2.13;;;10.10;99.90;;;;;;5047380;28;20049;-64
2023/03/31 07:41:25;;;;;;;6.20;2.85;;;10.10;99.90;;;;;;5038051;28;20187;-64
2023/03/31 07:43:50;;;;;;;7.32;2.35;;;10.10;99.90;;;;;;5041037;28;20048;-64
2023/03/31 07:46:25;;;;;;;5.32;2.03;;;10.10;99.90;;;;;;5033678;28;20037;-64
2023/03/31 07:48:52;;;;;;;5.43;2.38;;;10.10;99.90;;;;;;5037821;28;20495;-65
2023/03/31 07:51:21;;;;;;;12.77;2.50;;;10.10;99.90;;;;;;5044585;28;20051;-65
2023/03/31 07:53:51;;;;;;;6.95;2.40;;;10.10;99.90;;;;;;5040506;28;20045;-64
2023/03/31 07:56:26;;;;;;;5.20;1.98;;;10.10;99.90;;;;;;5065569;28;20383;-66
2023/03/31 07:58:51;;;;;;;7.82;2.10;;;10.10;99.90;;;;;;5040444;28;20083;-64
2023/03/31 08:01:19;;;;;;;10.38;2.10;;;10.10;99.90;;;;;;5022397;28;20033;-65
2023/03/31 08:03:46;;;;;;;8.98;2.38;;;10.10;99.90;;;;;;5064163;28;20043;-64
2023/03/31 08:06:18;;;;;;;10.88;2.78;;;10.10;99.90;;;;;;5066518;28;20557;-64
2023/03/31 08:08:44;;;;;;;8.13;1.95;;;10.20;99.90;;;;;;5066441;28;20051;-65
2023/03/31 08:11:10;;;;;;;8.02;2.35;;;10.10;99.90;;;;;;5031752;28;20033;-64
2023/03/31 08:13:36;;;;;;;6.57;2.55;;;10.20;99.90;;;;;;5048528;28;20185;-64
2023/03/31 08:16:02;;;;;;;4.90;2.08;;;10.20;99.90;;;;;;5048249;28;20483;-65
2023/03/31 08:18:28;;;;;;;8.52;2.30;;;10.20;99.90;;;;;;5047981;28;20032;-64
2023/03/31 08:20:54;;;;;;;4.15;2.22;;;10.20;99.90;;;;;;5066321;28;20524;-64
2023/03/31 08:23:20;;;;;;;10.25;2.65;;;10.20;99.90;;;;;;5066091;28;20045;-64
2023/03/31 08:25:46;;;;;;;16.08;2.95;;;10.10;99.90;;;;;;5066425;28;20044;-64
2023/03/31 08:28:13;;;;;;;4.45;2.58;;;10.10;99.90;;;;;;5066079;28;20041;-64
2023/03/31 08:30:42;;;;;;;7.97;2.40;;;10.10;99.90;;;;;;5066392;28;20055;-64
2023/03/31 08:33:07;;;;;;;7.90;2.42;;;10.10;99.90;;;;;;5043635;28;20522;-64
2023/03/31 08:35:36;;;;;;;10.98;3.03;;;10.10;99.90;;;;;;5038531;28;20044;-64
2023/03/31 08:38:02;;;;;;;10.13;2.47;;;10.10;99.90;;;;;;5048313;28;20156;-64
2023/03/31 08:40:30;;;;;;;6.88;2.38;;;10.10;99.90;;;;;;5065699;28;20041;-64
2023/03/31 08:43:01;;;;;;;9.60;2.75;;;10.10;99.90;;;;;;5031704;28;20410;-64
2023/03/31 08:45:33;;;;;;;9.35;2.92;;;10.10;99.90;;;;;;5064833;28;20083;-64
2023/03/31 08:48:24;;;;;;;11.13;2.67;;;10.10;99.90;;;;;;5066842;28;20125;-65
2023/03/31 08:50:56;;;;;;;8.50;2.30;;;10.10;99.90;;;;;;5065777;28;20048;-64
2023/03/31 08:53:30;;;;;;;9.20;2.67;;;10.10;99.90;;;;;;5066086;28;20036;-64
2023/03/31 08:55:57;;;;;;;8.07;2.50;;;10.10;99.90;;;;;;5065791;28;20510;-65
2023/03/31 08:58:46;;;;;;;5.60;2.13;;;10.10;99.90;;;;;;5051101;28;20044;-65
2023/03/31 09:01:30;;;;;;;13.53;3.10;;;10.20;99.90;;;;;;5069826;28;20060;-64
2023/03/31 09:04:14;;;;;;;7.97;2.38;;;10.10;99.90;;;;;;5056017;28;20109;-64
2023/03/31 09:06:55;;;;;;;7.18;2.15;;;10.20;99.90;;;;;;5046034;28;20056;-65
2023/03/31 09:09:55;;;;;;;9.27;2.42;;;10.20;99.90;;;;;;5070119;28;20530;-65
2023/03/31 09:12:47;;;;;;;4.18;1.95;;;10.20;99.90;;;;;;5047616;28;20056;-65
2023/03/31 09:15:40;;;;;;;6.22;2.17;;;10.30;99.90;;;;;;5068916;28;20548;-65
2023/03/31 09:18:25;;;;;;;5.25;2.22;;;10.30;99.90;;;;;;5053350;28;20402;-65
2023/03/31 09:20:55;;;;;;;7.15;2.15;;;10.20;99.90;;;;;;5065835;28;20052;-65
2023/03/31 09:24:03;;;;;;;8.55;2.50;;;10.30;99.90;;;;;;5034542;28;20044;-65
2023/03/31 09:26:46;;;;;;;5.70;2.03;;;10.30;99.90;;;;;;5054998;28;20082;-65
2023/03/31 09:29:23;;;;;;;8.30;2.22;;;10.40;99.90;;;;;;5069117;28;20045;-65
2023/03/31 09:31:49;;;;;;;10.95;2.58;;;10.40;99.90;;;;;;5050690;28;20056;-65
2023/03/31 09:34:23;;;;;;;7.90;2.20;;;10.50;99.90;;;;;;5069048;28;20391;-64
2023/03/31 09:36:49;;;;;;;8.82;2.38;;;10.50;99.90;;;;;;5064111;28;20037;-65
2023/03/31 09:39:15;;;;;;;13.18;3.08;;;10.60;99.90;;;;;;5068988;28;20076;-65
2023/03/31 09:41:48;;;;;;;11.65;2.85;;;10.60;99.90;;;;;;5068163;28;20068;-63
2023/03/31 09:44:21;;;;;;;8.20;1.73;;;10.60;99.90;;;;;;5057437;28;20045;-63
2023/03/31 09:46:48;;;;;;;9.32;2.78;;;10.60;99.90;;;;;;5030533;28;20051;-63
2023/03/31 09:49:26;;;;;;;10.25;2.38;;;10.60;99.90;;;;;;5025727;28;20036;-63
2023/03/31 09:52:11;;;;;;;8.85;2.38;;;10.60;99.90;;;;;;5066060;28;20167;-62
2023/03/31 09:54:49;;;;;;;11.05;2.70;;;10.60;99.90;;;;;;5054694;28;20368;-63
2023/03/31 09:57:25;;;;;;;7.95;2.42;;;10.70;99.90;;;;;;5068039;28;20052;-63
2023/03/31 09:59:52;;;;;;;20.85;2.72;;;10.60;99.90;;;;;;5054460;28;20036;-63
2023/03/31 10:02:33;;;;;;;10.32;2.45;;;10.70;99.90;;;;;;5033114;28;20116;-63
2023/03/31 10:04:59;;;;;;;13.15;2.53;;;10.70;99.90;;;;;;5030314;28;20135;-63
2023/03/31 10:07:25;;;;;;;9.82;2.25;;;10.70;99.90;;;;;;5034366;28;20128;-63
2023/03/31 10:09:53;;;;;;;6.13;2.42;;;10.70;99.90;;;;;;5067430;28;20083;-63
2023/03/31 10:12:23;;;;;;;5.65;2.08;;;10.80;99.90;;;;;;5049258;28;20052;-63
2023/03/31 10:15:00;;;;;;;9.18;2.05;;;10.80;99.90;;;;;;5048587;28;20073;-63
2023/03/31 10:17:27;;;;;;;13.23;2.30;;;10.90;99.90;;;;;;5048235;28;20372;-63
2023/03/31 10:19:59;;;;;;;9.73;2.35;;;10.90;99.90;;;;;;5045738;28;20529;-63
2023/03/31 10:22:29;;;;;;;7.40;2.40;;;10.90;99.90;;;;;;5050031;28;20127;-63
2023/03/31 10:25:15;;;;;;;10.77;2.33;;;11.00;99.90;;;;;;5067510;28;20044;-64
2023/03/31 10:27:42;;;;;;;9.82;2.20;;;10.90;99.90;;;;;;5045283;28;20036;-63
2023/03/31 10:30:10;;;;;;;7.57;2.25;;;11.00;99.90;;;;;;5067302;28;20126;-63
2023/03/31 10:32:41;;;;;;;11.38;2.85;;;11.00;99.90;;;;;;5067754;28;20071;-64
2023/03/31 10:35:33;;;;;;;12.20;2.85;;;11.00;99.90;;;;;;5050249;28;20045;-64
2023/03/31 10:38:03;;;;;;;9.23;3.00;;;11.10;99.90;;;;;;5063502;28;20032;-63
2023/03/31 10:40:31;;;;;;;10.15;2.40;;;11.10;99.90;;;;;;5067546;28;20052;-63
2023/03/31 10:43:11;;;;;;;7.57;2.03;;;11.10;99.90;;;;;;5066990;28;20051;-63
2023/03/31 10:45:43;;;;;;;6.00;1.98;;;11.20;99.90;;;;;;5067676;28;20045;-63
2023/03/31 10:48:40;;;;;;;10.68;2.30;;;11.20;99.90;;;;;;5067694;28;20040;-63
2023/03/31 10:51:17;;;;;;;8.82;2.13;;;11.30;99.90;;;;;;5065833;28;20040;-63
2023/03/31 10:53:52;;;;;;;8.48;2.20;;;11.30;99.90;;;;;;5062285;28;20105;-64
2023/03/31 10:56:45;;;;;;;10.98;2.40;;;11.40;99.90;;;;;;5065933;28;20036;-63
2023/03/31 10:59:20;;;;;;;7.88;2.35;;;11.50;99.90;;;;;;5046269;28;20055;-64
2023/03/31 11:02:12;;;;;;;10.43;2.65;;;11.50;99.90;;;;;;5044857;28;20048;-63
2023/03/31 11:04:37;;;;;;;4.47;1.92;;;11.70;99.90;;;;;;5067220;28;20075;-63
2023/03/31 11:07:09;;;;;;;10.02;1.83;;;11.70;99.90;;;;;;5066400;28;20467;-63
2023/03/31 11:09:58;;;;;;;12.18;1.98;;;11.80;99.90;;;;;;5044879;28;20052;-64
2023/03/31 11:12:33;;;;;;;8.18;1.83;;;11.70;99.90;;;;;;5048080;28;20113;-63
2023/03/31 11:15:15;;;;;;;4.57;1.85;;;11.60;99.90;;;;;;5067376;28;20052;-63
2023/03/31 11:18:02;;;;;;;6.43;1.58;;;11.50;99.90;;;;;;5065619;28;20076;-63
2023/03/31 11:20:35;;;;;;;4.00;1.73;;;11.50;99.90;;;;;;5058837;28;20040;-63
2023/03/31 11:23:23;;;;;;;3.15;1.00;;;11.50;99.90;;;;;;5065515;28;20494;-63
2023/03/31 11:25:57;;;;;;;6.00;1.42;;;11.40;99.90;;;;;;5065732;28;20499;-63
2023/03/31 11:28:51;;;;;;;5.30;1.60;;;11.50;99.90;;;;;;5067218;28;20407;-63
2023/03/31 11:31:39;;;;;;;4.70;1.63;;;11.40;99.90;;;;;;5035737;28;20072;-63
2023/03/31 11:34:18;;;;;;;6.15;1.38;;;11.60;99.90;;;;;;5047839;28;20521;-63
2023/03/31 11:37:06;;;;;;;9.02;1.83;;;11.70;99.90;;;;;;5036083;28;20083;-64
2023/03/31 11:39:46;;;;;;;6.50;1.63;;;11.80;99.90;;;;;;5048040;28;20065;-63
2023/03/31 11:42:21;;;;;;;6.40;1.70;;;11.80;99.90;;;;;;5047724;28;20479;-64
2023/03/31 11:44:53;;;;;;;3.05;1.20;;;11.90;99.90;;;;;;5065728;28;20119;-63
2023/03/31 11:47:24;;;;;;;3.85;1.45;;;12.00;99.90;;;;;;5031962;28;20047;-64
2023/03/31 11:50:17;;;;;;;2.75;1.00;;;12.10;99.90;;;;;;5057226;28;20084;-64
2023/03/31 11:52:53;;;;;;;3.28;1.38;;;12.10;99.90;;;;;;5059204;28;20044;-63
2023/03/31 11:55:20;;;;;;;5.43;1.52;;;12.20;99.90;;;;;;5064370;28;20376;-63
2023/03/31 11:58:30;;;;;;;6.53;1.90;;;12.40;99.90;;;;;;5066865;28;21287;-64
2023/03/31 12:01:06;;;;;;;3.13;1.50;;;12.60;99.90;;;;;;5026121;28;20510;-63
2023/03/31 12:03:32;;;;;;;3.10;1.08;;;12.70;99.90;;;;;;5063284;28;20056;-64
2023/03/31 12:06:02;;;;;;;3.58;1.33;;;12.80;99.90;;;;;;5036996;28;20037;-64
2023/03/31 12:08:34;;;;;;;10.60;2.60;;;12.90;99.90;;;;;;5065927;28;20608;-63
2023/03/31 12:11:06;;;;;;;5.68;1.80;;;13.00;99.90;;;;;;5046454;28;20497;-63
2023/03/31 12:13:38;;;;;;;6.22;1.85;;;13.00;99.90;;;;;;5058108;28;20037;-63
2023/03/31 12:16:12;;;;;;;10.18;1.70;;;13.00;99.90;;;;;;5063043;28;20491;-64
2023/03/31 12:18:51;;;;;;;6.68;1.45;;;12.90;99.90;;;;;;5066334;28;20059;-65
2023/03/31 12:21:22;;;;;;;6.50;1.83;;;12.90;99.90;;;;;;5065334;28;20036;-62
2023/03/31 12:23:48;;;;;;;4.53;1.52;;;12.90;99.90;;;;;;5066892;28;20410;-62
2023/03/31 12:27:03;;;;;;;10.32;2.17;;;13.10;99.90;;;;;;5065156;28;20051;-62
2023/03/31 12:29:47;;;;;;;12.05;1.38;;;13.10;99.90;;;;;;5048362;28;20447;-62
2023/03/31 12:32:20;;;;;;;6.88;1.65;;;13.00;99.90;;;;;;5060709;28;20066;-62
2023/03/31 12:35:14;;;;;;;7.38;2.13;;;13.20;99.90;;;;;;5069857;28;20029;-63
2023/03/31 12:37:58;;;;;;;7.50;1.65;;;13.40;99.90;;;;;;5067636;28;20414;-62
2023/03/31 12:40:26;;;;;;;10.02;1.80;;;13.40;99.90;;;;;;5058386;28;20043;-62
2023/03/31 12:43:26;;;;;;;3.20;1.20;;;13.40;99.90;;;;;;5067982;28;20459;-62
2023/03/31 12:46:20;;;;;;;8.73;2.17;;;13.20;99.90;;;;;;5070262;28;20048;-62
2023/03/31 12:48:55;;;;;;;7.28;1.88;;;13.00;99.90;;;;;;5057179;28;20436;-62
2023/03/31 12:51:50;;;;;;;4.43;1.80;;;12.90;99.90;;;;;;5058000;28;20056;-63
2023/03/31 12:54:48;;;;;;;8.45;1.70;;;12.90;99.90;;;;;;5050927;28;20095;-63
2023/03/31 12:57:28;;;;;;;7.38;1.63;;;12.90;99.90;;;;;;5065473;28;20049;-63
2023/03/31 13:00:19;;;;;;;5.32;1.30;;;13.00;99.90;;;;;;5051257;28;20148;-62
2023/03/31 13:02:46;;;;;;;4.20;1.13;;;13.00;99.90;;;;;;5048226;28;20064;-63
2023/03/31 13:05:34;;;;;;;5.03;1.20;;;13.20;99.90;;;;;;5051014;28;20550;-62
2023/03/31 13:08:03;;;;;;;4.25;1.20;;;13.30;99.90;;;;;;5042379;28;20040;-62
2023/03/31 13:10:32;;;;;;;8.60;1.35;;;13.40;99.90;;;;;;5068521;28;20054;-62
2023/03/31 13:13:13;;;;;;;9.00;1.63;;;13.50;99.90;;;;;;5060433;28;20051;-63